Regionale Übersicht

METAR und TAF

Sonntag, 20. September 2020 - 04:25 Uhr

Beobachtete horizontale meteorologische Sicht an ausgewählten Flughäfen. Die vollständigen METARs und Flugwettervorhersagen (TAFs) sind verfügbar, wenn Sie auf das entsprechende Symbol mit der ICAO-Flughafenkennung klicken.

  • Luxemburg (ELLX)

    Taf: TAF ELLX 192300Z 2000/2106 06010KT CAVOK=

    Metar: METAR ELLX 200150Z AUTO 04007KT 9999 NCD 17/07 Q1016 NOSIG=

  • Spangdahlem (ETAD)

    Taf: TAF AMD ETAD 191800Z 1918/2020 10005KT 9999 FEW150 QNH3001INS BECMG 2007/2008 06009KT 9999 SCT180 QNH2998INS BECMG 2017/2018 VRB05KT 9999 FEW180 QNH3000INS TX24/2014Z TN11/2004Z LAST NO AMDS AFT 1918 NEXT 2010=

    Metar: METAR ETAD 200156Z AUTO 00000KT 9999 FEW200 14/06 A3001 RMK AO2 SLP141 T01360062 $=

  • Metz/Nancy (LFJL)

    Taf: TAF LFJL 192300Z 2000/2024 08006KT CAVOK=

    Metar: METAR LFJL 200200Z AUTO 09005KT CAVOK 16/08 Q1015 NOSIG=

  • Saarbrücken/Intl (EDDR)

    Taf: TAF EDDR 192300Z 2000/2024 04006KT CAVOK=

    Metar: METAR EDDR 200150Z 03005KT 360V060 CAVOK 12/07 Q1016=

  • Hahn (EDFH)

    Taf: TAF EDFH 192300Z 2000/2024 11006KT CAVOK BECMG 2009/2012 05007KT=

    Metar: METAR EDFH 200150Z 16005KT CAVOK 12/06 Q1017=

  • Ramstein (ETAR)

    Taf: TAF ETAR 200200Z 2002/2108 VRB06KT 9999 BKN200 QNH2998INS BECMG 2008/2009 05012KT 9999 BKN200 QNH2996INS BECMG 2017/2018 VRB06KT 9999 FEW200 QNH2997INS TX24/2014Z TN08/2004Z=

    Metar: METAR ETAR 200156Z AUTO 00000KT 9999 CLR 07/07 A3001 RMK AO2 SLP162 T00660066 FZRANO $=

  • Nancy/Ochey (LFSO)

    Taf: TAF LFSO 200200Z NIL=

    Metar: METAR LFSO 200200Z AUTO VRB02KT CAVOK 15/11 Q1015=

  • Liège Bierset (EBLG)

    Taf: TAF EBLG 192310Z 2000/2106 05005KT CAVOK BECMG 2102/2104 2000 MIFG BR PROB30 TEMPO 2103/2106 0800 BCFG=

    Metar: METAR EBLG 200150Z VRB03KT CAVOK 17/08 Q1016 NOSIG=

  • Saint-Dizier (LFSI)

    Taf: TAF LFSI 200200Z 2003/2103 11013KT CAVOK=

    Metar: METAR LFSI 200200Z AUTO 09005KT CAVOK 19/14 Q1014=

  • Maastricht/Zuid Limburg (EHBK)

    Taf: TAF EHBK 192257Z 2000/2106 07006KT CAVOK=

    Metar: METAR EHBK 200155Z AUTO 05003KT 9999 NCD 13/07 Q1016=

  • Köln/Köln-Bonn (EDDK)

    Taf: TAF EDDK 192300Z 2000/2106 11004KT CAVOK BECMG 2010/2012 04007KT BECMG 2021/2023 11004KT=

    Metar: METAR EDDK 200150Z 10003KT 070V130 CAVOK 11/04 Q1016 NOSIG=

  • Charleroi (EBCI)

    Taf: TAF EBCI 192310Z 2000/2106 05005KT CAVOK BECMG 2102/2104 2000 MIFG BR PROB30 TEMPO 2103/2106 0800 BCFG=

    Metar: METAR EBCI 200150Z VRB01KT CAVOK 19/11 Q1016 NOSIG=

  • Wiesbaden (ETOU)

    Taf: TAF AMD ETOU 191225Z 1912/2018 09009KT 9999 SKC QNH3010INS TX26/1915Z TN14/2006Z LAST NO AMDS AFT 1913=

    Metar: METAR ETOU 200156Z AUTO 00000KT 9999 CLR 12/05 A3001 RMK AO2 SLP162 T01170049 $=

  • Karlsruhe/Baden-Baden (EDSB)

    Taf: TAF EDSB 192300Z NIL=

    Metar: METAR EDSB 200150Z AUTO 04002KT 9999 NCD 13/09 Q1015=

  • Chalons/Vatry (LFOK)

    Taf: TAF LFOK 192300Z 2000/2024 VRB02KT CAVOK BECMG 2012/2014 34010KT BECMG 2019/2021 VRB02KT=

    Metar: METAR LFOK 200200Z AUTO 06005KT CAVOK 18/14 Q1014 NOSIG=

  • Frankfurt/Main (EDDF)

    Taf: TAF EDDF 192300Z 2000/2106 04006KT CAVOK=

    Metar: METAR EDDF 200150Z 05003KT 010V110 CAVOK 13/05 Q1016 NOSIG=

  • Brüssel (EBBR)

    Taf: TAF EBBR 192310Z 2000/2106 04005KT CAVOK BECMG 2102/2104 2500 MIFG BR PROB30 TEMPO 2103/2106 1200 BCFG=

    Metar: METAR EBBR 200150Z 05003KT CAVOK 14/09 Q1016 NOSIG=

  • Düsseldorf (EDDL)

    Taf: TAF EDDL 192300Z 2000/2106 05005KT CAVOK BECMG 2010/2012 03010KT BECMG 2018/2020 03005KT=

    Metar: METAR EDDL 200150Z 06002KT CAVOK 08/06 Q1016 NOSIG=

  • Luxeuil (LFSX)

    Taf: TAF LFSX 200200Z NIL=

    Metar: METAR LFSX 200200Z AUTO 05005KT CAVOK 14/13 Q1015=

  • Eindhoven (EHEH)

    Taf: TAF EHEH 192322Z 2000/2106 05007KT CAVOK=

    Metar: METAR EHEH 200155Z AUTO 03004KT 9999 NCD 11/07 Q1016 BLU=

  • Niederrhein (EDLV)

    Taf: TAF EDLV 192300Z NIL=

    Metar: METAR EDLV 200150Z NIL=

  • Dortmund/Wickede (EDLW)

    Taf: TAF EDLW 192300Z NIL=

    Metar: METAR EDLW 200150Z AUTO VRB02KT 9999 // NCD 10/05 Q1017=

  • Stuttgart/Echterdingen (EDDS)

    Taf: TAF EDDS 192300Z 2000/2024 VRB03KT CAVOK TEMPO 2012/2018 02005KT=

    Metar: METAR EDDS 200150Z 31002KT CAVOK 12/09 Q1016=

  • Basel-Mühlhausen (LFSB)

    Taf: TAF LFSB 192300Z 2000/2024 VRB03KT CAVOK=

    Metar: METAR LFSB 200200Z AUTO 27001KT 5000 1600 BR NSC 12/11 Q1015 NOSIG=

  • Lille (LFQQ)

    Taf: TAF LFQQ 192300Z 2000/2106 16006KT CAVOK BECMG 2013/2015 02010KT BECMG 2020/2023 VRB02KT=

    Metar: METAR LFQQ 200200Z AUTO 03008KT CAVOK 19/11 Q1014 NOSIG=

  • Paris/Charles de Gaulle (LFPG)

    Taf: TAF LFPG 192300Z 2000/2106 09005KT CAVOK TX29/2015Z TN18/2006Z=

    Metar: METAR LFPG 200200Z 09005KT CAVOK 20/15 Q1013 NOSIG=

  • Paderborn/Lippstadt (EDLP)

    Taf: TAF EDLP 192300Z NIL=

    Metar: METAR EDLP NIL=

  • Paris/Le Bourget (LFPB)

    Taf: TAF LFPB 192300Z 2000/2024 09005KT CAVOK=

    Metar: METAR LFPB 200200Z AUTO 05003KT 9000 NSC 18/17 Q1013 NOSIG=

  • Rotterdam (EHRD)

    Taf: TAF EHRD 192247Z 2000/2106 06008KT CAVOK BECMG 2019/2022 06004KT 7000 PROB30 2102/2106 1500 BCFG=

    Metar: METAR EHRD 200155Z AUTO 04004KT 9999 NCD 11/08 Q1017 NOSIG=

  • Zürich/Kloten (LSZH)

    Taf: TAF LSZH 192325Z 2000/2106 36004KT 8000 NSC TX22/2014Z TN13/2005Z TN13/2105Z PROB40 2003/2007 4500 BR BKN004 PROB30 2003/2005 1200 BCFG BECMG 2007/2010 CAVOK BECMG 2022/2101 7000 NSC PROB30 TEMPO 2100/2105 4500 MIFG=

    Metar: METAR LSZH 200150Z 31002KT 5000 BR NSC 15/14 Q1016 BECMG 4000=

  • Oostende/Intl (EBOS)

    Taf: TAF EBOS 192310Z 2000/2106 06009KT CAVOK=

    Metar: METAR EBOS 200150Z 07010KT CAVOK 17/09 Q1016 NOSIG=

  • Paris/Orly (LFPO)

    Taf: TAF LFPO 192300Z 2000/2106 08005KT CAVOK PROB30 TEMPO 2012/2018 -SHRA BKN040TCU=

    Metar: METAR LFPO 200200Z 30002KT 9000 NSC 18/17 Q1013 NOSIG=

  • Beauvais (LFOB)

    Taf: TAF LFOB 192300Z 2000/2024 VRB02KT CAVOK BECMG 2010/2012 02010KT=

    Metar: METAR LFOB 200200Z AUTO 12001KT CAVOK 17/16 Q1013 NOSIG=

  • Münster/Intl (EDDG)

    Taf: TAF EDDG 192300Z 2000/2024 05004KT CAVOK BECMG 2009/2012 04009KT BECMG 2016/2019 03004KT=

    Metar: METAR EDDG 200150Z 04003KT CAVOK 10/04 Q1018 NOSIG=

  • Illesheim (ETIK)

    Taf: nil

    Metar: METAR ETIK 200156Z AUTO 00000KT 9999 CLR 05/05 A3004 RMK AO2 SLP173 T00540054 $=

  • Duebendorf (LSMD)

    Taf: TAF AMD LSMD 191709Z 1917/2023 VRB03KT CAVOK TEMPO 1917/1922 9999 FEW080 PROB40 TEMPO 2002/2007 2000 BCFG SCT002=

    Metar: METAR LSMD 200150Z AUTO 33004KT 4200NDV BR OVC140 15/14 Q1016 RMK=

  • Villacoublay (LFPV)

    Taf: TAF LFPV 200200Z 2003/2103 03005KT 9000 NSC PROB40 TEMPO 2004/2006 3000 BR BKN003 TEMPO 2015/2019 VRB15G25KT 4000 SHRA SCT020 BKN050CB PROB30 TEMPO 2015/2018 2000 TSRA=

    Metar: METAR LFPV 200200Z AUTO 14005KT 6000 NSC 18/17 Q1014=

  • Payerne (LSMP)

    Taf: TAF LSMP 191625Z 1917/2023 VRB03KT 9999 FEW040 SCT140 TEMPO 1918/2006 SHRA SCT050TCU=

    Metar: METAR LSMP 200150Z AUTO 00000KT 4000NDV BR BKN130 15/14 Q1016 RMK=

  • Amsterdam/Schipol (EHAM)

    Taf: TAF EHAM 192247Z 2000/2106 06010KT CAVOK BECMG 2017/2020 06005KT PROB30 TEMPO 2102/2106 7000=

    Metar: METAR EHAM 200155Z 05007KT 020V080 CAVOK 13/08 Q1017 NOSIG=

  • Emmen (LSME)

    Taf: TAF AMD LSME 192036Z 1920/2023 VRB03KT 6000 NSC PROB40 1920/2006 4500 BR PROB30 2003/2006 2000 BCFG SCT002 PROB40 TEMPO 2014/2021 SHRA FEW040TCU=

    Metar: METAR LSME 200150Z AUTO 00000KT 4800NDV BR SCT006 BKN010 14/13 Q1016 RMK=

  • Friedrichshafen (EDNY)

    Taf: TAF EDNY 192300Z 2000/2024 04005KT CAVOK TEMPO 2000/2008 OVC009 PROB30 TEMPO 2000/2008 4000 BR BKN004=

    Metar: METAR EDNY 200150Z AUTO 05003KT 010V070 6000 // FEW099/// OVC120/// 14/14 Q1015=

  • Alpnach (LSMA)

    Taf: TAF AMD LSMA 192007Z 1920/2023 VRB03KT 7000 FEW140 PROB40 1921/2006 4500 BR PROB30 TEMPO 2002/2007 2000 BCFG SCT003 PROB40 TEMPO 2011/2021 05010KT SHRA FEW040TCU=

    Metar: METAR LSMA 200150Z AUTO VRB02KT 9000NDV NCD 12/12 Q1016 RMK=

  • Meiringen (LSMM)

    Taf: TAF AMD LSMM 192100Z 1921/2023 VRB03KT 9999 FEW006 PROB40 TEMPO 1921/2006 4500 BR BKN006 PROB30 TEMPO 2000/2007 2000 BCFG BECMG 2007/2010 FEW005 SCT120 PROB40 TEMPO 2011/2021 SHRA FEW040TCU=

    Metar: METAR LSMM 200150Z AUTO 07003KT 050V110 9999NDV NCD 10/10 Q1017 RMK=

  • Nürnberg (EDDN)

    Taf: TAF EDDN 192300Z 2000/2024 07004KT CAVOK=

    Metar: METAR EDDN 200150Z VRB01KT CAVOK 08/06 Q1017=

  • Rouen (LFOP)

    Taf: TAF LFOP 192300Z NIL=

    Metar: METAR LFOP 200200Z AUTO 04004KT CAVOK 17/16 Q1013=

  • Evreux (LFOE)

    Taf: TAF LFOE 200200Z 2003/2103 03003KT CAVOK TEMPO 2004/2007 4000 BR BKN004 PROB30 TEMPO 2005/2007 0800 BCFG VV/// TEMPO 2007/2009 BKN008 BECMG 2009/2011 BKN025 TEMPO 2012/2020 05010G20KT -SHRA BKN050CB PROB30 TEMPO 2015/2018 VRB15G25KT 4000 -TSRA BKN040CB=

    Metar: METAR LFOE 200200Z AUTO 32002KT CAVOK 17/15 Q1013 NOSIG=

  • Erfurt/Bindersleben (EDDE)

    Taf: TAF EDDE 192300Z 2000/2024 06006KT CAVOK=

    Metar: METAR EDDE 200150Z 21005KT CAVOK 07/04 Q1018=